createdAt,value
2019-05-20T00:02:38.348Z,8.43
2019-05-20T00:05:28.961Z,10.17
2019-05-20T00:08:16.839Z,9.20
2019-05-20T00:11:05.297Z,8.83
2019-05-20T00:13:55.700Z,8.43
2019-05-20T00:16:44.268Z,8.57
2019-05-20T00:19:35.417Z,8.10
2019-05-20T00:22:23.638Z,7.03
2019-05-20T00:28:06.758Z,6.70
2019-05-20T00:30:57.434Z,7.07
2019-05-20T00:33:46.426Z,7.60
2019-05-20T00:36:35.254Z,8.23
2019-05-20T00:39:27.388Z,9.30
2019-05-20T00:42:15.910Z,13.33
2019-05-20T00:45:04.437Z,11.63
2019-05-20T00:47:52.816Z,9.43
2019-05-20T00:50:41.109Z,9.37
2019-05-20T00:53:29.652Z,8.40
2019-05-20T00:56:18.524Z,8.63
2019-05-20T00:59:07.210Z,8.37
2019-05-20T01:01:58.513Z,7.80
2019-05-20T01:04:50.143Z,8.37
2019-05-20T01:07:40.010Z,7.47
2019-05-20T01:10:28.838Z,7.80
2019-05-20T01:13:17.190Z,7.33
2019-05-20T01:16:05.419Z,7.97
2019-05-20T01:18:58.756Z,8.50
2019-05-20T01:21:48.149Z,9.63
2019-05-20T01:24:39.185Z,10.03
2019-05-20T01:27:27.446Z,10.30
2019-05-20T01:30:17.879Z,9.23
2019-05-20T01:33:13.718Z,7.73
2019-05-20T01:36:02.064Z,8.63
2019-05-20T01:38:55.041Z,8.57
2019-05-20T01:41:48.864Z,6.60
2019-05-20T01:44:37.192Z,6.47
2019-05-20T01:47:25.769Z,5.57
2019-05-20T01:50:14.287Z,6.40
2019-05-20T01:53:02.625Z,6.90
2019-05-20T01:55:50.859Z,5.13
2019-05-20T01:58:40.414Z,4.70
2019-05-20T02:01:29.699Z,5.10
2019-05-20T02:04:18.404Z,5.10
2019-05-20T02:07:06.468Z,4.40
2019-05-20T02:09:54.756Z,4.37
2019-05-20T02:12:46.210Z,4.40
2019-05-20T02:15:48.730Z,4.57
2019-05-20T02:18:36.830Z,4.50
2019-05-20T02:21:25.388Z,5.40
2019-05-20T02:24:16.480Z,4.77
2019-05-20T02:27:10.057Z,4.20
2019-05-20T02:29:58.258Z,4.03
2019-05-20T02:32:46.909Z,4.37
2019-05-20T02:35:38.539Z,5.20
2019-05-20T02:38:27.044Z,4.13
2019-05-20T02:41:15.999Z,3.80
2019-05-20T02:44:07.596Z,4.70
2019-05-20T02:46:56.220Z,4.93
2019-05-20T02:49:47.582Z,7.83
2019-05-20T02:52:36.453Z,3.70
2019-05-20T02:55:28.622Z,3.83
2019-05-20T02:58:20.779Z,4.27
2019-05-20T03:01:11.357Z,4.70
2019-05-20T03:04:11.555Z,5.10
2019-05-20T03:07:01.176Z,4.17
2019-05-20T03:09:49.633Z,4.23
2019-05-20T03:12:37.891Z,4.47
2019-05-20T03:15:26.913Z,4.60
2019-05-20T03:18:18.128Z,4.60
2019-05-20T03:21:05.915Z,4.43
2019-05-20T03:23:56.874Z,4.90
2019-05-20T03:26:45.999Z,4.57
2019-05-20T03:29:37.433Z,6.80
2019-05-20T03:32:32.448Z,5.03
2019-05-20T03:35:20.743Z,5.13
2019-05-20T03:38:09.423Z,5.13
2019-05-20T03:40:58.591Z,5.13
2019-05-20T03:43:46.948Z,5.03
2019-05-20T03:46:35.234Z,4.73
2019-05-20T03:49:29.402Z,4.57
2019-05-20T03:52:19.185Z,4.60
2019-05-20T03:55:11.480Z,5.70
2019-05-20T03:58:00.137Z,5.77
2019-05-20T04:00:57.565Z,6.43
2019-05-20T04:03:46.392Z,6.30
2019-05-20T04:06:34.720Z,6.10
2019-05-20T04:09:22.886Z,6.60
2019-05-20T04:12:10.671Z,5.73
2019-05-20T04:14:58.858Z,6.60
2019-05-20T04:17:47.833Z,7.20
2019-05-20T04:20:38.057Z,6.47
2019-05-20T04:23:29.946Z,6.57
2019-05-20T04:26:31.774Z,7.47
2019-05-20T04:29:20.458Z,9.20
2019-05-20T04:32:09.710Z,8.20
2019-05-20T04:34:58.289Z,9.97
2019-05-20T04:37:47.220Z,8.80
2019-05-20T04:40:35.296Z,6.60
2019-05-20T04:43:23.345Z,7.43
2019-05-20T04:46:11.426Z,6.40
2019-05-20T04:49:00.112Z,5.73
2019-05-20T04:51:48.281Z,6.07
2019-05-20T04:54:43.516Z,6.40
2019-05-20T04:58:09.066Z,6.27
2019-05-20T05:01:03.193Z,7.27
2019-05-20T05:03:54.286Z,19.20
2019-05-20T05:06:43.483Z,19.73
2019-05-20T05:09:31.799Z,21.87
2019-05-20T05:15:20.023Z,12.40
2019-05-20T05:18:08.309Z,9.20
2019-05-20T05:20:59.204Z,6.70
2019-05-20T05:24:01.604Z,5.07
2019-05-20T05:26:49.723Z,5.40
2019-05-20T05:29:38.305Z,4.77
2019-05-20T05:32:42.344Z,4.80
2019-05-20T05:35:31.357Z,5.33
2019-05-20T05:38:19.452Z,5.50
2019-05-20T05:41:10.293Z,6.30
2019-05-20T05:43:58.577Z,6.73
2019-05-20T05:46:49.054Z,5.80
2019-05-20T05:49:37.501Z,5.63
2019-05-20T05:52:25.752Z,6.20
2019-05-20T05:55:15.674Z,5.83
2019-05-20T05:58:08.822Z,5.50
2019-05-20T06:00:57.587Z,5.67
2019-05-20T06:03:53.369Z,5.20
2019-05-20T06:06:42.076Z,5.57
2019-05-20T06:09:30.493Z,4.87
2019-05-20T06:12:18.851Z,6.20
2019-05-20T06:15:07.256Z,5.20
2019-05-20T06:17:55.801Z,5.40
2019-05-20T06:20:44.219Z,6.63
2019-05-20T06:23:32.350Z,7.10
2019-05-20T06:26:20.468Z,5.93
2019-05-20T06:29:08.513Z,6.60
2019-05-20T06:31:56.948Z,6.40
2019-05-20T06:37:07.481Z,6.80
2019-05-20T06:39:58.446Z,6.50
2019-05-20T06:43:25.726Z,7.20
2019-05-20T06:50:29.600Z,7.30
2019-05-20T06:54:24.752Z,7.40
2019-05-20T07:01:33.610Z,8.20
2019-05-20T07:08:41.228Z,10.80
2019-05-20T07:11:58.967Z,10.50
2019-05-20T07:18:46.993Z,11.20
2019-05-20T07:25:59.214Z,14.93
2019-05-20T07:33:41.393Z,16.27
2019-05-20T07:43:55.754Z,20.53
2019-05-20T07:47:25.004Z,21.47
2019-05-20T07:50:13.790Z,20.73
2019-05-20T07:53:02.449Z,21.53
2019-05-20T07:56:12.974Z,20.80
2019-05-20T07:59:08.339Z,21.77
2019-05-20T08:02:26.345Z,21.17
2019-05-20T08:05:15.528Z,20.43
2019-05-20T08:08:24.753Z,19.93
2019-05-20T08:11:41.017Z,24.03
2019-05-20T08:18:49.596Z,19.97
2019-05-20T08:21:43.849Z,19.37
2019-05-20T08:24:34.056Z,19.20
2019-05-20T08:27:22.119Z,20.17
2019-05-20T08:30:14.037Z,23.13
2019-05-20T08:33:00.056Z,20.63
2019-05-20T08:35:48.317Z,20.40
2019-05-20T08:38:38.764Z,20.93
2019-05-20T08:41:26.879Z,22.50
2019-05-20T08:44:15.046Z,22.50
2019-05-20T08:47:03.317Z,23.13
2019-05-20T08:49:51.938Z,24.20
2019-05-20T08:52:43.368Z,23.43
2019-05-20T08:55:31.654Z,24.87
2019-05-20T08:58:20.365Z,24.57
2019-05-20T09:01:10.212Z,30.77
2019-05-20T09:03:58.199Z,24.23
2019-05-20T09:06:48.561Z,26.00
2019-05-20T09:09:38.183Z,27.97
2019-05-20T09:12:26.447Z,29.10
2019-05-20T09:15:14.558Z,24.23
2019-05-20T09:18:07.659Z,24.23
2019-05-20T09:20:56.120Z,22.87
2019-05-20T09:23:43.828Z,22.67
2019-05-20T09:26:34.543Z,22.67
2019-05-20T09:29:22.861Z,23.97
2019-05-20T09:32:10.959Z,21.87
2019-05-20T09:34:58.868Z,23.43
2019-05-20T09:37:46.732Z,24.03
2019-05-20T09:40:45.996Z,22.43
2019-05-20T09:43:34.255Z,21.70
2019-05-20T09:46:22.223Z,25.10
2019-05-20T09:49:16.550Z,24.07
2019-05-20T09:52:06.185Z,21.63
2019-05-20T09:54:54.212Z,23.17
2019-05-20T09:57:42.166Z,22.20
2019-05-20T10:00:30.164Z,24.93
2019-05-20T10:03:18.632Z,25.13
2019-05-20T10:06:06.967Z,25.07
2019-05-20T10:08:54.863Z,25.90
2019-05-20T10:11:42.737Z,25.73
2019-05-20T10:14:30.896Z,25.80
2019-05-20T10:17:19.188Z,25.43
2019-05-20T10:20:07.382Z,26.83
2019-05-20T10:22:55.281Z,27.43
2019-05-20T10:25:43.110Z,27.07
2019-05-20T10:28:31.320Z,31.03
2019-05-20T10:31:19.754Z,27.13
2019-05-20T10:34:07.793Z,27.77
2019-05-20T10:36:56.033Z,29.83
2019-05-20T10:39:44.985Z,28.77
2019-05-20T10:42:35.827Z,28.23
2019-05-20T10:45:23.613Z,28.83
2019-05-20T10:48:11.595Z,29.33
2019-05-20T10:50:59.483Z,27.73
2019-05-20T10:53:47.497Z,36.10
2019-05-20T10:56:39.780Z,36.43
2019-05-20T10:59:28.795Z,33.90
2019-05-20T11:02:18.192Z,34.57
2019-05-20T11:05:14.021Z,34.13
2019-05-20T11:08:03.867Z,33.73
2019-05-20T11:10:52.138Z,40.07
2019-05-20T11:13:40.456Z,37.90
2019-05-20T11:16:28.695Z,38.90
2019-05-20T11:19:27.382Z,40.73
2019-05-20T11:22:12.403Z,38.00
2019-05-20T11:25:00.534Z,43.27
2019-05-20T11:27:49.237Z,43.07
2019-05-20T11:34:22.339Z,45.00
2019-05-20T11:37:38.276Z,47.47
2019-05-20T11:40:37.824Z,44.87
2019-05-20T11:44:11.948Z,49.20
2019-05-20T11:46:57.426Z,51.40
2019-05-20T11:49:47.676Z,51.20
2019-05-20T11:52:37.659Z,56.47
2019-05-20T11:55:26.387Z,52.07
2019-05-20T11:58:16.440Z,53.90
2019-05-20T12:01:04.436Z,55.93
2019-05-20T12:03:52.658Z,53.17
2019-05-20T12:06:40.421Z,53.80
2019-05-20T12:09:28.414Z,61.53
2019-05-20T12:12:16.911Z,54.87
2019-05-20T12:15:06.827Z,61.77
2019-05-20T12:17:55.856Z,54.63
2019-05-20T12:20:43.565Z,59.13
2019-05-20T12:23:32.767Z,58.47
2019-05-20T12:34:52.381Z,62.37
2019-05-20T12:37:55.486Z,65.23
2019-05-20T12:41:28.493Z,55.40
2019-05-20T12:44:35.658Z,53.83
2019-05-20T12:51:41.771Z,58.73
2019-05-20T12:54:40.040Z,54.63
2019-05-20T12:58:26.956Z,54.20
2019-05-20T13:04:57.102Z,59.10
2019-05-20T13:07:52.930Z,57.43
2019-05-20T13:11:53.770Z,55.10
2019-05-20T13:14:38.140Z,56.07
2019-05-20T13:17:49.937Z,59.53
2019-05-20T13:20:37.849Z,61.97
2019-05-20T13:23:40.586Z,60.63
2019-05-20T13:26:29.103Z,62.73
2019-05-20T13:29:28.112Z,61.17
2019-05-20T13:32:16.141Z,49.90
2019-05-20T13:35:04.723Z,49.20
2019-05-20T13:37:56.082Z,47.60
2019-05-20T13:40:47.085Z,47.20
2019-05-20T13:43:34.977Z,45.30
2019-05-20T13:46:23.179Z,46.53
2019-05-20T13:49:13.891Z,46.33
2019-05-20T13:52:03.840Z,44.70
2019-05-20T13:54:52.059Z,43.37
2019-05-20T13:57:40.135Z,42.67
2019-05-20T14:00:48.072Z,46.17
2019-05-20T14:03:57.003Z,46.77
2019-05-20T14:07:14.949Z,46.27
2019-05-20T14:10:18.247Z,42.03
2019-05-20T14:12:57.699Z,50.90
2019-05-20T14:15:56.158Z,49.87
2019-05-20T14:18:45.276Z,48.77
2019-05-20T14:24:54.269Z,55.90
2019-05-20T14:27:42.285Z,54.27
2019-05-20T14:30:29.969Z,50.03
2019-05-20T14:33:19.531Z,54.03
2019-05-20T14:36:08.813Z,53.40
2019-05-20T14:38:59.348Z,56.53
2019-05-20T14:42:07.437Z,53.57
2019-05-20T14:44:56.363Z,55.60
2019-05-20T14:47:44.689Z,49.13
2019-05-20T14:50:32.984Z,48.67
2019-05-20T14:53:22.551Z,51.73
2019-05-20T14:56:10.473Z,48.37
2019-05-20T14:58:58.548Z,53.33
2019-05-20T15:01:54.466Z,47.13
2019-05-20T15:04:43.133Z,53.40
2019-05-20T15:07:31.437Z,49.10
2019-05-20T15:10:30.417Z,47.43
2019-05-20T15:13:18.994Z,46.33
2019-05-20T15:16:06.942Z,49.20
2019-05-20T15:18:54.888Z,52.07
2019-05-20T15:21:42.729Z,51.13
2019-05-20T15:24:30.887Z,48.43
2019-05-20T15:27:19.436Z,53.00
2019-05-20T15:30:42.046Z,47.47
2019-05-20T15:33:33.139Z,52.07
2019-05-20T15:36:21.751Z,50.53
2019-05-20T15:39:16.695Z,51.67
2019-05-20T15:42:05.338Z,53.13
2019-05-20T15:44:54.524Z,45.87
2019-05-20T15:47:42.758Z,45.37
2019-05-20T15:50:31.407Z,51.13
2019-05-20T15:53:20.162Z,53.37
2019-05-20T15:56:09.330Z,51.20
2019-05-20T15:58:58.349Z,57.87
2019-05-20T16:01:56.829Z,56.33
2019-05-20T16:04:51.844Z,55.40
2019-05-20T16:10:41.719Z,57.93
2019-05-20T16:13:35.944Z,56.53
2019-05-20T16:16:27.342Z,53.30
2019-05-20T16:19:21.123Z,56.50
2019-05-20T16:22:09.279Z,53.60
2019-05-20T16:25:00.878Z,51.27
2019-05-20T16:27:54.679Z,53.47
2019-05-20T16:30:42.486Z,49.40
2019-05-20T16:33:40.786Z,49.97
2019-05-20T16:36:30.675Z,48.13
2019-05-20T16:39:18.834Z,45.53
2019-05-20T16:42:10.189Z,49.13
2019-05-20T16:44:58.125Z,47.97
2019-05-20T16:47:51.519Z,43.17
2019-05-20T16:50:39.766Z,46.80
2019-05-20T16:53:27.819Z,40.43
2019-05-20T16:56:20.964Z,43.60
2019-05-20T17:00:01.790Z,42.40
2019-05-20T17:03:02.565Z,35.63
2019-05-20T17:05:57.075Z,38.83
2019-05-20T17:08:48.103Z,39.43
2019-05-20T17:11:39.962Z,41.43
2019-05-20T17:14:37.997Z,36.53
2019-05-20T17:17:43.966Z,42.13
2019-05-20T17:20:39.240Z,39.90
2019-05-20T17:23:27.111Z,40.73
2019-05-20T17:26:21.826Z,44.13
2019-05-20T17:29:14.771Z,40.47
2019-05-20T17:32:02.870Z,43.90
2019-05-20T17:34:51.620Z,47.37
2019-05-20T17:37:43.046Z,47.00
2019-05-20T17:40:39.278Z,48.07
2019-05-20T17:43:30.218Z,50.90
2019-05-20T17:46:20.822Z,56.37
2019-05-20T17:49:11.671Z,54.93
2019-05-20T17:51:59.555Z,57.53
2019-05-20T17:54:47.858Z,59.53
2019-05-20T17:57:36.335Z,57.63
2019-05-20T18:00:24.842Z,61.57
2019-05-20T18:03:12.606Z,62.77
2019-05-20T18:06:00.563Z,67.83
2019-05-20T18:08:51.789Z,66.63
2019-05-20T18:11:50.002Z,68.90
2019-05-20T18:14:52.684Z,68.20
2019-05-20T18:18:52.615Z,69.30
2019-05-20T18:22:18.102Z,68.63
2019-05-20T18:25:26.289Z,69.13
2019-05-20T18:37:46.588Z,76.77
2019-05-20T18:39:26.435Z,74.23
2019-05-20T18:42:47.306Z,72.40
2019-05-20T18:46:25.999Z,78.83
2019-05-20T18:49:47.277Z,80.37
2019-05-20T18:53:11.797Z,83.30
2019-05-20T18:56:07.928Z,90.07
2019-05-20T18:59:04.570Z,96.27
2019-05-20T19:02:05.044Z,102.27
2019-05-20T19:05:17.713Z,106.70
2019-05-20T19:08:02.313Z,102.77
2019-05-20T19:11:24.713Z,110.37
2019-05-20T19:14:37.682Z,121.03
2019-05-20T19:17:32.804Z,105.93
2019-05-20T19:20:55.176Z,112.83
2019-05-20T19:27:23.388Z,114.13
2019-05-20T19:30:13.577Z,116.07
2019-05-20T19:33:04.343Z,127.93
2019-05-20T19:35:54.488Z,121.77
2019-05-20T19:38:42.475Z,119.87
2019-05-20T19:41:38.316Z,131.90
2019-05-20T19:44:28.507Z,144.97
2019-05-20T19:47:16.722Z,136.87
2019-05-20T19:50:05.133Z,138.13
2019-05-20T19:52:53.260Z,130.83
2019-05-20T19:55:41.309Z,140.37
2019-05-20T19:58:29.451Z,134.13
2019-05-20T20:01:17.550Z,131.63
2019-05-20T20:04:05.595Z,142.40
2019-05-20T20:06:53.993Z,138.13
2019-05-20T20:09:42.471Z,144.63
2019-05-20T20:12:31.054Z,149.13
2019-05-20T20:15:20.057Z,133.90
2019-05-20T20:18:12.147Z,135.27
2019-05-20T20:24:29.976Z,137.60
2019-05-20T20:27:27.329Z,133.13
2019-05-20T20:30:48.767Z,141.80
2019-05-20T20:33:39.081Z,124.03
2019-05-20T20:36:27.621Z,138.27
2019-05-20T20:39:17.267Z,147.23
2019-05-20T20:42:05.346Z,126.97
2019-05-20T20:44:53.633Z,132.10
2019-05-20T20:47:42.479Z,129.70
2019-05-20T20:50:30.914Z,124.50
2019-05-20T20:53:19.213Z,128.17
2019-05-20T20:56:24.298Z,126.03
2019-05-20T20:59:01.314Z,144.93
2019-05-20T21:01:49.432Z,133.33
2019-05-20T21:04:37.630Z,136.03
2019-05-20T21:07:26.175Z,144.63
2019-05-20T21:10:14.871Z,139.40
2019-05-20T21:13:04.085Z,129.53
2019-05-20T21:15:54.184Z,147.70
2019-05-20T21:18:42.198Z,139.27
2019-05-20T21:21:35.763Z,114.13
2019-05-20T21:24:24.097Z,128.20
2019-05-20T21:27:12.336Z,125.50
2019-05-20T21:30:00.411Z,111.40
2019-05-20T21:32:50.105Z,106.30
2019-05-20T21:35:38.595Z,111.73
2019-05-20T21:38:28.144Z,124.10
2019-05-20T21:41:23.999Z,117.47
2019-05-20T21:44:10.574Z,113.33
2019-05-20T21:46:58.752Z,116.93
2019-05-20T21:49:49.871Z,106.23
2019-05-20T21:52:38.119Z,107.53
2019-05-20T21:55:26.162Z,105.00
2019-05-20T21:58:15.025Z,108.10
2019-05-20T22:01:04.011Z,122.97
2019-05-20T22:03:52.098Z,107.37
2019-05-20T22:06:46.310Z,107.63
2019-05-20T22:09:40.561Z,110.10
2019-05-20T22:12:31.555Z,111.40
2019-05-20T22:15:19.691Z,116.87
2019-05-20T22:18:07.968Z,119.60
2019-05-20T22:20:56.805Z,128.87
2019-05-20T22:23:49.945Z,127.33
2019-05-20T22:26:48.494Z,125.73
2019-05-20T22:29:37.937Z,111.60
2019-05-20T22:32:26.325Z,110.07
2019-05-20T22:35:14.277Z,106.53
2019-05-20T22:38:10.597Z,107.33
2019-05-20T22:40:58.680Z,118.13
2019-05-20T22:43:46.568Z,113.77
2019-05-20T22:46:34.503Z,110.00
2019-05-20T22:49:23.679Z,109.40
2019-05-20T22:52:11.823Z,107.50
2019-05-20T22:55:00.775Z,113.23
2019-05-20T22:57:52.133Z,113.83
2019-05-20T23:00:40.231Z,110.73
2019-05-20T23:03:28.446Z,106.47
2019-05-20T23:06:16.438Z,104.37
2019-05-20T23:09:06.621Z,92.20
2019-05-20T23:11:54.653Z,97.60
2019-05-20T23:14:42.484Z,91.37
2019-05-20T23:17:30.699Z,88.00
2019-05-20T23:20:19.593Z,88.80
2019-05-20T23:23:08.218Z,87.97
2019-05-20T23:25:56.187Z,86.13
2019-05-20T23:28:43.971Z,81.43
2019-05-20T23:31:32.279Z,81.47
2019-05-20T23:34:20.736Z,78.60
2019-05-20T23:37:08.807Z,68.90
2019-05-20T23:39:57.019Z,72.80
2019-05-20T23:42:46.655Z,70.50
2019-05-20T23:45:41.907Z,68.43
2019-05-20T23:48:30.019Z,71.00
2019-05-20T23:51:18.359Z,69.53
2019-05-20T23:54:06.328Z,67.03
2019-05-20T23:56:54.438Z,64.10
2019-05-20T23:59:42.276Z,66.40
